Time;durP1;ratioP1;P1;durP2;ratioP2;P2;SDS_P1;SDS_P2;PMS_P1;PMS_P2;Temp;Humidity;BMP_temperature;BMP_pressure;BME280_temperature;BME280_humidity;BME280_pressure;Samples;Min_cycle;Max_cycle;Signal;HPM_P1;HPM_P2
2022/01/14 04:01:10;;;;;;;5.50;5.00;;;3.00;75.40;;;;;;5787909;23;20894;-75
2022/01/14 04:03:37;;;;;;;5.00;4.10;;;3.00;75.40;;;;;;5017256;28;20444;-75
2022/01/14 04:06:04;;;;;;;5.50;4.27;;;3.00;75.50;;;;;;5017275;28;20440;-73
2022/01/14 04:08:31;;;;;;;5.00;4.00;;;3.10;75.20;;;;;;5017237;28;20447;-74
2022/01/14 04:11:00;;;;;;;4.50;3.87;;;3.10;75.10;;;;;;5017115;28;20514;-74
2022/01/14 04:13:38;;;;;;;5.23;4.30;;;3.20;75.00;;;;;;5041143;23;20499;-70
2022/01/14 04:16:05;;;;;;;5.97;4.17;;;3.20;75.20;;;;;;5017133;28;20439;-70
2022/01/14 04:18:33;;;;;;;4.70;3.83;;;3.20;75.20;;;;;;5017062;28;20444;-70
2022/01/14 04:21:01;;;;;;;4.80;3.80;;;3.30;75.00;;;;;;5016931;28;20527;-70
2022/01/14 04:23:27;;;;;;;4.93;4.20;;;3.30;74.90;;;;;;5016863;28;20511;-69
2022/01/14 04:25:55;;;;;;;4.73;3.80;;;3.30;74.60;;;;;;5016878;28;20482;-70
2022/01/14 04:28:24;;;;;;;4.33;3.83;;;3.40;74.50;;;;;;5016839;28;20448;-70
2022/01/14 04:30:54;;;;;;;4.30;3.70;;;3.40;74.40;;;;;;5016818;28;20463;-71
2022/01/14 04:33:22;;;;;;;5.70;4.07;;;3.50;73.90;;;;;;5016689;28;20472;-71
2022/01/14 04:35:50;;;;;;;4.40;3.47;;;3.40;73.90;;;;;;5016702;28;20444;-70
2022/01/14 04:38:16;;;;;;;4.47;3.70;;;3.50;73.90;;;;;;5016694;28;20575;-71
2022/01/14 04:40:43;;;;;;;4.37;3.70;;;3.50;73.80;;;;;;5016579;28;20479;-70
2022/01/14 04:43:11;;;;;;;4.73;3.97;;;3.50;73.50;;;;;;5016487;28;20876;-70
2022/01/14 04:45:48;;;;;;;4.10;3.63;;;3.50;73.20;;;;;;5016531;28;20884;-70
2022/01/14 04:48:15;;;;;;;4.13;3.40;;;3.50;73.10;;;;;;5016502;28;20464;-70
2022/01/14 04:50:41;;;;;;;4.50;3.47;;;3.50;73.30;;;;;;5016378;28;20862;-70
2022/01/14 04:53:11;;;;;;;4.20;3.63;;;3.50;73.40;;;;;;5016275;28;20518;-70
2022/01/14 04:55:38;;;;;;;3.93;3.27;;;3.40;73.40;;;;;;5016341;28;20455;-70
2022/01/14 04:58:05;;;;;;;4.17;3.40;;;3.40;73.40;;;;;;5016268;28;20514;-70
2022/01/14 05:00:32;;;;;;;4.93;3.70;;;3.30;73.40;;;;;;5016258;28;20484;-70
2022/01/14 05:02:59;;;;;;;4.50;3.03;;;3.30;73.60;;;;;;5016149;28;20870;-70
2022/01/14 05:05:29;;;;;;;4.60;3.40;;;3.30;73.50;;;;;;5016150;28;20455;-71
2022/01/14 05:07:57;;;;;;;4.30;3.60;;;3.10;73.80;;;;;;5015927;28;20926;-70
2022/01/14 05:10:35;;;;;;;4.87;3.20;;;3.00;74.30;;;;;;5014827;28;20457;-71
2022/01/14 05:13:02;;;;;;;4.20;3.50;;;3.10;73.80;;;;;;5015773;28;20448;-70
2022/01/14 05:15:29;;;;;;;3.83;3.30;;;3.10;73.80;;;;;;5015991;28;20424;-70
2022/01/14 05:17:56;;;;;;;4.10;3.63;;;2.90;74.00;;;;;;5015627;28;20962;-70
2022/01/14 05:20:23;;;;;;;3.87;3.10;;;3.00;74.30;;;;;;5015794;28;20506;-70
2022/01/14 05:22:49;;;;;;;3.77;2.90;;;3.10;74.00;;;;;;5015754;28;20444;-70
2022/01/14 05:25:16;;;;;;;3.93;3.10;;;3.10;73.70;;;;;;5015427;28;20867;-70
2022/01/14 05:27:44;;;;;;;3.80;2.97;;;3.00;73.60;;;;;;5015716;28;20510;-71
2022/01/14 05:30:13;;;;;;;4.20;3.17;;;3.00;73.80;;;;;;5015685;28;20452;-70
2022/01/14 05:32:46;;;;;;;4.50;3.40;;;3.00;74.00;;;;;;5015630;28;20444;-71
2022/01/14 05:35:14;;;;;;;4.53;3.83;;;3.00;73.80;;;;;;5015614;28;20433;-71
2022/01/14 05:37:41;;;;;;;4.97;4.30;;;3.00;73.70;;;;;;5015180;28;21017;-71
2022/01/14 05:40:09;;;;;;;4.30;3.90;;;3.00;73.60;;;;;;5015403;28;20866;-71
2022/01/14 05:42:36;;;;;;;4.80;4.30;;;3.00;73.50;;;;;;5015501;28;20448;-70
2022/01/14 05:45:05;;;;;;;4.60;3.77;;;3.00;73.60;;;;;;5015331;28;20467;-71
2022/01/14 05:47:32;;;;;;;4.90;4.20;;;3.00;73.70;;;;;;5015303;28;20451;-70
2022/01/14 05:49:58;;;;;;;5.33;4.53;;;2.90;73.80;;;;;;5015261;28;20449;-70
2022/01/14 05:52:25;;;;;;;4.47;4.03;;;2.90;73.80;;;;;;5015251;28;20444;-71
2022/01/14 05:54:53;;;;;;;5.20;4.33;;;2.90;73.80;;;;;;5015256;28;20530;-71
2022/01/14 05:57:20;;;;;;;4.90;4.23;;;2.90;73.70;;;;;;5015124;28;20448;-71
2022/01/14 05:59:47;;;;;;;4.77;3.73;;;2.90;73.40;;;;;;5014906;28;20867;-71
2022/01/14 06:02:15;;;;;;;4.07;3.37;;;2.90;73.40;;;;;;5014712;28;21065;-71
2022/01/14 06:04:43;;;;;;;4.97;4.10;;;2.90;73.10;;;;;;5014960;28;20467;-70
2022/01/14 06:07:10;;;;;;;4.03;3.60;;;2.80;73.40;;;;;;5015066;28;20543;-71
2022/01/14 06:09:37;;;;;;;4.37;3.77;;;2.80;73.60;;;;;;5014652;28;20894;-70
2022/01/14 06:12:04;;;;;;;4.30;3.60;;;2.80;73.40;;;;;;5014915;28;20447;-71
2022/01/14 06:14:30;;;;;;;4.93;3.90;;;2.90;73.30;;;;;;5014503;28;20476;-70
2022/01/14 06:16:58;;;;;;;4.23;3.57;;;2.70;73.90;;;;;;5014821;28;20444;-70
2022/01/14 06:19:27;;;;;;;4.67;3.67;;;2.70;74.10;;;;;;5014411;28;20975;-71
2022/01/14 06:21:54;;;;;;;5.40;4.20;;;2.80;73.90;;;;;;5014280;28;20994;-70
2022/01/14 06:24:20;;;;;;;3.80;3.07;;;2.80;73.80;;;;;;5014617;28;20464;-71
2022/01/14 06:26:47;;;;;;;4.23;3.47;;;2.80;74.20;;;;;;5014626;28;20451;-70
2022/01/14 06:29:14;;;;;;;4.47;3.00;;;2.80;74.40;;;;;;5014582;28;20499;-70
2022/01/14 06:31:40;;;;;;;5.87;3.23;;;2.80;74.20;;;;;;5014518;28;20567;-70
2022/01/14 06:34:07;;;;;;;3.90;2.90;;;2.80;74.20;;;;;;5014109;28;20979;-71
2022/01/14 06:36:35;;;;;;;4.33;3.17;;;2.80;74.40;;;;;;5014095;28;20796;-70
2022/01/14 06:39:01;;;;;;;4.00;2.87;;;2.80;74.60;;;;;;5014077;28;20935;-70
2022/01/14 06:41:28;;;;;;;4.30;2.93;;;2.80;74.60;;;;;;5013969;28;20871;-70
2022/01/14 06:43:55;;;;;;;4.77;2.80;;;2.80;74.50;;;;;;5014318;28;20495;-71
2022/01/14 06:46:21;;;;;;;4.13;3.10;;;2.80;74.20;;;;;;5014255;28;20543;-70
2022/01/14 06:48:48;;;;;;;4.67;3.50;;;2.70;74.40;;;;;;5014196;28;20444;-70
2022/01/14 06:51:15;;;;;;;4.23;3.20;;;2.80;74.20;;;;;;5014226;28;20440;-70
2022/01/14 06:53:43;;;;;;;4.37;3.03;;;2.80;74.10;;;;;;5014057;28;20468;-71
2022/01/14 06:56:11;;;;;;;3.80;2.97;;;2.80;74.10;;;;;;5014074;28;20518;-70
2022/01/14 06:58:37;;;;;;;4.70;3.97;;;2.80;74.10;;;;;;5014044;28;20444;-70
2022/01/14 07:01:05;;;;;;;3.90;2.90;;;2.70;74.10;;;;;;5013571;28;20901;-70
2022/01/14 07:03:32;;;;;;;3.80;2.70;;;2.50;74.20;;;;;;5013894;28;20464;-71
2022/01/14 07:05:59;;;;;;;4.30;3.20;;;2.30;75.10;;;;;;5014102;28;20501;-70
2022/01/14 07:08:25;;;;;;;4.77;2.93;;;2.20;75.40;;;;;;5014029;28;20499;-71
2022/01/14 07:10:53;;;;;;;4.80;2.80;;;2.30;75.50;;;;;;5013890;28;20448;-71
2022/01/14 07:13:20;;;;;;;4.23;3.40;;;2.40;75.10;;;;;;5013441;28;20492;-71
2022/01/14 07:15:46;;;;;;;4.13;2.93;;;2.50;74.90;;;;;;5014631;28;20433;-70
2022/01/14 07:18:15;;;;;;;4.90;3.80;;;2.60;74.80;;;;;;5013753;28;20448;-71
2022/01/14 07:20:42;;;;;;;4.57;3.40;;;2.60;74.40;;;;;;5013661;28;20444;-71
2022/01/14 07:23:09;;;;;;;5.17;4.37;;;2.60;74.40;;;;;;5013651;28;20469;-71
2022/01/14 07:25:37;;;;;;;6.23;4.90;;;2.70;74.00;;;;;;5013362;28;20939;-70
2022/01/14 07:28:06;;;;;;;6.90;4.50;;;2.80;73.90;;;;;;5013687;28;20448;-70
2022/01/14 07:30:33;;;;;;;5.03;3.80;;;2.80;73.80;;;;;;5013659;28;20861;-71
2022/01/14 07:32:59;;;;;;;4.80;3.80;;;2.80;73.80;;;;;;5013438;28;20452;-71
2022/01/14 07:35:26;;;;;;;5.50;4.00;;;2.80;73.70;;;;;;5012948;28;21006;-71
2022/01/14 07:37:53;;;;;;;4.67;3.93;;;2.90;73.60;;;;;;5013469;28;20448;-70
2022/01/14 07:40:20;;;;;;;6.77;4.83;;;2.90;73.80;;;;;;5013194;28;20967;-70
2022/01/14 07:42:46;;;;;;;5.33;4.00;;;3.00;74.00;;;;;;5013138;28;20842;-71
2022/01/14 07:45:14;;;;;;;5.17;4.20;;;3.40;74.60;;;;;;5013553;28;20510;-71
2022/01/14 07:47:41;;;;;;;5.10;3.60;;;4.00;72.50;;;;;;5013517;28;20511;-71
2022/01/14 07:50:08;;;;;;;4.10;3.37;;;4.50;71.50;;;;;;5013502;28;20494;-71
2022/01/14 07:52:35;;;;;;;4.13;3.43;;;5.00;69.30;;;;;;5013324;28;20506;-71
2022/01/14 07:55:01;;;;;;;4.37;3.57;;;5.30;67.70;;;;;;5013268;28;20468;-70
2022/01/14 07:57:28;;;;;;;4.90;3.63;;;5.50;66.50;;;;;;5013244;28;20448;-70
2022/01/14 07:59:55;;;;;;;4.20;3.33;;;5.60;65.90;;;;;;5013425;28;20444;-70
2022/01/14 08:02:25;;;;;;;4.03;3.37;;;5.60;65.60;;;;;;5013804;28;20993;-71
2022/01/14 08:04:52;;;;;;;4.50;3.60;;;5.70;65.50;;;;;;5013265;28;20899;-70
2022/01/14 08:07:22;;;;;;;4.77;4.20;;;5.70;65.60;;;;;;5013230;28;20506;-70
2022/01/14 08:09:49;;;;;;;5.80;3.57;;;5.70;65.50;;;;;;5013259;28;20891;-71
2022/01/14 08:12:16;;;;;;;4.10;3.23;;;5.70;65.50;;;;;;5013448;28;20803;-71
2022/01/14 08:14:43;;;;;;;4.90;3.30;;;5.80;65.80;;;;;;5012849;28;20535;-70
2022/01/14 08:17:11;;;;;;;4.70;4.20;;;5.80;66.00;;;;;;5013302;28;20441;-71
2022/01/14 08:19:39;;;;;;;4.50;3.10;;;5.90;66.40;;;;;;5013224;28;20452;-72
2022/01/14 08:22:07;;;;;;;4.93;3.60;;;6.20;65.90;;;;;;5013132;28;20523;-72
2022/01/14 08:24:35;;;;;;;4.27;3.20;;;6.40;65.50;;;;;;5013021;28;20991;-71
2022/01/14 08:27:02;;;;;;;4.23;3.03;;;6.60;65.50;;;;;;5013252;28;20531;-71
2022/01/14 08:29:29;;;;;;;3.97;3.13;;;6.80;64.50;;;;;;5013068;28;20863;-71
2022/01/14 08:31:55;;;;;;;4.00;3.00;;;6.90;63.90;;;;;;5013108;28;20527;-71
2022/01/14 08:34:23;;;;;;;6.10;3.00;;;7.10;63.90;;;;;;5013018;28;20560;-71
2022/01/14 08:36:51;;;;;;;3.80;2.40;;;7.20;63.30;;;;;;5012782;28;20459;-72
2022/01/14 08:39:18;;;;;;;4.57;3.37;;;7.30;63.10;;;;;;5013041;28;20448;-71
2022/01/14 08:41:45;;;;;;;4.17;3.20;;;7.30;63.20;;;;;;5012680;28;20932;-71
2022/01/14 08:44:14;;;;;;;4.10;3.37;;;7.40;63.60;;;;;;5012885;28;20471;-71
2022/01/14 08:46:41;;;;;;;7.30;6.43;;;7.60;62.90;;;;;;5015040;28;20460;-71
2022/01/14 08:49:08;;;;;;;4.73;4.10;;;7.80;63.30;;;;;;5016498;28;20527;-71
2022/01/14 08:51:36;;;;;;;4.40;3.43;;;7.90;62.20;;;;;;5016342;28;20449;-71
2022/01/14 08:54:05;;;;;;;4.90;3.87;;;7.60;62.60;;;;;;5016031;28;21005;-71
2022/01/14 08:56:32;;;;;;;4.47;3.80;;;7.10;64.20;;;;;;5016359;28;20539;-72
2022/01/14 08:59:00;;;;;;;4.90;4.30;;;6.60;65.80;;;;;;5016228;28;20451;-72
2022/01/14 09:01:26;;;;;;;4.30;3.40;;;6.00;67.50;;;;;;5015922;28;20486;-71
2022/01/14 09:03:54;;;;;;;3.80;2.87;;;5.70;68.50;;;;;;5016135;28;20534;-71
2022/01/14 09:06:20;;;;;;;3.83;2.87;;;5.60;69.20;;;;;;5016154;28;20452;-71
2022/01/14 09:08:47;;;;;;;3.87;3.33;;;5.30;69.60;;;;;;5016132;28;20502;-71
2022/01/14 09:11:15;;;;;;;4.73;3.63;;;5.40;70.30;;;;;;5015744;28;20479;-72
2022/01/14 09:13:42;;;;;;;4.30;3.50;;;5.70;68.80;;;;;;5015702;28;20546;-71
2022/01/14 09:16:09;;;;;;;4.57;3.50;;;6.10;68.10;;;;;;5015681;28;20547;-71
2022/01/14 09:18:35;;;;;;;4.10;3.27;;;6.20;67.20;;;;;;5015870;28;20448;-71
2022/01/14 09:21:02;;;;;;;4.20;2.80;;;6.20;67.00;;;;;;5015821;28;20498;-72
2022/01/14 09:23:29;;;;;;;3.60;2.80;;;6.20;67.80;;;;;;5016241;28;20502;-71
2022/01/14 09:25:57;;;;;;;3.40;2.17;;;6.10;67.90;;;;;;5016144;28;20448;-72
2022/01/14 09:28:25;;;;;;;3.90;3.20;;;5.90;68.60;;;;;;5015836;28;20498;-71
2022/01/14 09:30:51;;;;;;;4.13;2.90;;;5.90;68.10;;;;;;5015700;28;20472;-71
2022/01/14 09:33:18;;;;;;;4.00;2.63;;;5.90;68.70;;;;;;5015540;28;20476;-71
2022/01/14 09:35:46;;;;;;;3.87;2.70;;;5.90;68.60;;;;;;5015634;28;20444;-71
2022/01/14 09:38:13;;;;;;;4.00;3.00;;;5.50;69.50;;;;;;5015235;28;20938;-71
2022/01/14 09:40:43;;;;;;;4.27;3.50;;;5.20;70.80;;;;;;5015206;28;20459;-72
2022/01/14 09:43:12;;;;;;;4.33;3.10;;;5.10;72.10;;;;;;5015250;28;20542;-70
2022/01/14 09:45:41;;;;;;;4.10;3.03;;;4.90;72.20;;;;;;5015485;28;20456;-71
2022/01/14 09:48:08;;;;;;;3.90;3.10;;;4.90;71.40;;;;;;5015063;28;20959;-71
2022/01/14 09:50:34;;;;;;;4.30;2.97;;;4.90;71.60;;;;;;5015336;28;20527;-70
2022/01/14 09:53:01;;;;;;;4.07;2.97;;;4.80;72.20;;;;;;5015146;28;20498;-71
2022/01/14 09:55:28;;;;;;;4.20;3.03;;;4.80;72.20;;;;;;5015165;28;20448;-70
2022/01/14 09:57:55;;;;;;;4.17;3.10;;;5.00;72.10;;;;;;5014752;28;20448;-71
2022/01/14 10:00:22;;;;;;;4.00;3.00;;;5.00;71.90;;;;;;5014812;28;20867;-70
2022/01/14 10:02:50;;;;;;;4.33;3.60;;;5.00;72.50;;;;;;5014901;28;20529;-70
2022/01/14 10:05:35;;;;;;;3.70;2.73;;;5.00;72.70;;;;;;5015082;28;20543;-70
2022/01/14 10:08:14;;;;;;;4.30;2.70;;;5.20;72.90;;;;;;5014993;28;20857;-71
2022/01/14 10:10:46;;;;;;;3.70;2.53;;;5.30;71.80;;;;;;5015004;28;20436;-70
2022/01/14 10:15:47;;;;;;;3.47;2.20;;;5.50;71.20;;;;;;5129914;23;20492;-75
2022/01/14 10:18:18;;;;;;;3.87;2.67;;;5.40;69.20;;;;;;5014823;28;20432;-75
2022/01/14 10:20:45;;;;;;;3.20;1.87;;;5.40;70.20;;;;;;5015667;28;20432;-75
2022/01/14 10:23:13;;;;;;;3.00;2.10;;;5.90;70.10;;;;;;5014395;28;20483;-75
2022/01/14 10:25:41;;;;;;;3.20;1.80;;;6.30;68.10;;;;;;5014282;28;20914;-75
2022/01/14 10:28:18;;;;;;;3.40;2.07;;;6.40;68.40;;;;;;5015283;28;20647;-75
2022/01/14 10:30:46;;;;;;;3.53;2.43;;;6.70;67.90;;;;;;5014704;28;20464;-76
2022/01/14 10:33:13;;;;;;;3.70;2.40;;;6.90;67.70;;;;;;5014196;28;20452;-76
2022/01/14 10:35:43;;;;;;;3.27;1.90;;;7.40;67.00;;;;;;5014395;28;20546;-77
2022/01/14 10:38:11;;;;;;;3.40;2.20;;;8.20;65.20;;;;;;5014534;28;20451;-76
2022/01/14 10:40:44;;;;;;;3.87;2.07;;;8.90;63.00;;;;;;5014137;28;20936;-76
2022/01/14 10:43:12;;;;;;;3.23;1.80;;;8.90;62.60;;;;;;5014387;28;20464;-76
2022/01/14 10:45:39;;;;;;;3.50;2.27;;;8.80;62.60;;;;;;5014270;28;20531;-76
2022/01/14 10:48:08;;;;;;;3.33;1.70;;;8.50;64.30;;;;;;5014229;28;20455;-75
2022/01/14 10:50:37;;;;;;;3.00;1.77;;;8.30;64.90;;;;;;5013930;28;20952;-76
2022/01/14 10:53:10;;;;;;;3.23;2.00;;;8.10;65.80;;;;;;5014173;28;20451;-76
2022/01/14 10:55:39;;;;;;;3.40;2.00;;;8.00;65.70;;;;;;5014051;28;20468;-76
2022/01/14 10:58:14;;;;;;;3.40;2.00;;;8.00;65.00;;;;;;5013839;28;20453;-75
2022/01/14 11:00:43;;;;;;;3.50;1.80;;;8.20;64.60;;;;;;5014101;28;20444;-76
2022/01/14 11:03:10;;;;;;;3.17;1.67;;;8.40;63.90;;;;;;5013646;28;20999;-75
2022/01/14 11:05:37;;;;;;;3.67;2.30;;;8.70;62.30;;;;;;5013544;28;20895;-75
2022/01/14 11:08:06;;;;;;;3.50;1.90;;;9.00;62.30;;;;;;5013185;28;20475;-76
2022/01/14 11:10:35;;;;;;;3.50;2.00;;;9.60;60.60;;;;;;5013645;28;20502;-75
2022/01/14 11:13:06;;;;;;;3.30;1.80;;;10.50;59.30;;;;;;5013436;28;20858;-75
2022/01/14 11:15:33;;;;;;;3.50;2.17;;;11.60;56.80;;;;;;5013585;28;20496;-76
2022/01/14 11:18:02;;;;;;;3.23;1.97;;;12.60;53.70;;;;;;5013591;28;20935;-76
2022/01/14 11:20:33;;;;;;;2.90;1.60;;;12.90;52.60;;;;;;5013951;28;20452;-73
2022/01/14 11:23:15;;;;;;;3.77;1.70;;;12.70;52.70;;;;;;5013736;28;20530;-74
2022/01/14 11:25:47;;;;;;;3.03;1.80;;;12.20;53.90;;;;;;5013767;28;20514;-74
2022/01/14 11:28:17;;;;;;;3.40;1.93;;;11.90;54.70;;;;;;5013709;28;20895;-75
2022/01/14 11:30:44;;;;;;;3.77;2.47;;;11.60;54.70;;;;;;5013984;28;20452;-74
2022/01/14 11:33:11;;;;;;;3.30;1.87;;;11.40;55.30;;;;;;5013679;28;20451;-74
2022/01/14 11:35:38;;;;;;;3.77;2.20;;;11.30;55.80;;;;;;5013628;28;20839;-74
2022/01/14 11:38:48;;;;;;;3.63;2.00;;;10.80;56.70;;;;;;5013631;28;20487;-75
2022/01/14 11:41:19;;;;;;;3.80;2.60;;;10.30;58.30;;;;;;5008304;28;20955;-76
2022/01/14 11:43:52;;;;;;;3.30;1.80;;;10.40;58.40;;;;;;5013421;28;20495;-75
2022/01/14 11:46:44;;;;;;;3.20;1.80;;;9.80;59.10;;;;;;5013605;28;20475;-76
2022/01/14 11:49:34;;;;;;;2.93;1.50;;;9.40;59.80;;;;;;5014299;28;20842;-75
2022/01/14 11:52:04;;;;;;;3.03;1.70;;;9.30;60.00;;;;;;5013535;28;20453;-76
2022/01/14 11:54:42;;;;;;;3.40;1.87;;;9.10;60.10;;;;;;5013474;28;20467;-76
2022/01/14 11:57:13;;;;;;;3.27;1.53;;;9.00;60.90;;;;;;5013537;28;20490;-73
2022/01/14 11:59:47;;;;;;;2.80;1.37;;;8.90;61.10;;;;;;5013378;28;20913;-75
2022/01/14 12:02:32;;;;;;;3.23;1.70;;;8.90;61.40;;;;;;5013489;28;20480;-73
2022/01/14 12:05:07;;;;;;;3.10;1.70;;;9.00;61.50;;;;;;5014039;28;20499;-71
2022/01/14 12:08:12;;;;;;;3.17;1.50;;;9.00;60.50;;;;;;5013598;28;20861;-75
2022/01/14 12:10:41;;;;;;;2.80;1.43;;;9.40;59.50;;;;;;5014551;28;20432;-75
2022/01/14 12:13:29;;;;;;;3.33;1.57;;;9.90;57.70;;;;;;5014130;28;20510;-75
2022/01/14 12:16:02;;;;;;;2.70;1.40;;;10.10;58.00;;;;;;5013617;28;20459;-76
2022/01/14 12:19:13;;;;;;;3.00;1.60;;;10.60;57.70;;;;;;5013120;28;20946;-76
2022/01/14 12:21:52;;;;;;;3.37;1.77;;;11.20;55.80;;;;;;5016973;28;20442;-75
2022/01/14 12:24:33;;;;;;;3.33;1.77;;;13.40;52.10;;;;;;5017808;28;20491;-76
2022/01/14 12:27:24;;;;;;;3.10;1.50;;;16.30;46.80;;;;;;5017398;28;20432;-75
2022/01/14 12:30:02;;;;;;;3.07;1.67;;;19.20;41.10;;;;;;5016844;28;20955;-76
2022/01/14 12:32:35;;;;;;;3.63;1.00;;;21.20;38.80;;;;;;5017413;28;20796;-75
2022/01/14 12:35:08;;;;;;;3.20;1.60;;;22.90;36.10;;;;;;5017071;28;20480;-76
2022/01/14 12:37:39;;;;;;;3.00;1.60;;;24.20;34.30;;;;;;5017953;28;20900;-76
2022/01/14 12:40:09;;;;;;;2.90;1.40;;;25.20;33.50;;;;;;5016719;28;20432;-74
2022/01/14 12:42:37;;;;;;;3.47;2.30;;;26.20;31.70;;;;;;5017179;28;20468;-77
2022/01/14 12:45:10;;;;;;;3.00;1.50;;;27.30;30.50;;;;;;5017150;28;20498;-75
2022/01/14 12:47:41;;;;;;;3.00;1.50;;;26.50;30.80;;;;;;5017141;28;20436;-76
2022/01/14 12:50:10;;;;;;;2.77;1.37;;;26.40;31.70;;;;;;5017186;28;20535;-75
2022/01/14 12:52:48;;;;;;;2.90;1.50;;;26.90;30.60;;;;;;5017182;28;20876;-76
2022/01/14 12:55:15;;;;;;;2.73;1.20;;;26.30;31.10;;;;;;5016845;28;20479;-77
2022/01/14 12:57:42;;;;;;;2.77;1.20;;;26.00;32.10;;;;;;5017168;28;20514;-76
2022/01/14 13:00:14;;;;;;;2.93;1.40;;;26.30;31.80;;;;;;5016494;28;20452;-76
2022/01/14 13:02:41;;;;;;;2.80;1.30;;;27.20;31.30;;;;;;5016182;28;20468;-75
2022/01/14 13:05:12;;;;;;;3.10;1.47;;;27.90;30.60;;;;;;5015750;28;20890;-75
2022/01/14 13:07:40;;;;;;;2.70;1.20;;;29.10;29.70;;;;;;5016287;28;20443;-76
2022/01/14 13:10:09;;;;;;;2.90;1.50;;;29.90;28.40;;;;;;5016136;28;20523;-76
2022/01/14 13:12:39;;;;;;;3.47;1.97;;;30.30;28.40;;;;;;5015773;28;20444;-74
2022/01/14 13:15:07;;;;;;;3.20;1.30;;;31.50;27.90;;;;;;5015678;28;20488;-76
2022/01/14 13:17:39;;;;;;;2.90;1.50;;;31.80;26.50;;;;;;5015648;28;20463;-75
2022/01/14 13:20:08;;;;;;;3.37;1.80;;;31.70;27.10;;;;;;5015950;28;20441;-74
2022/01/14 13:22:36;;;;;;;2.70;1.30;;;31.50;27.30;;;;;;5015910;28;20440;-74
2022/01/14 13:25:06;;;;;;;2.60;1.10;;;32.40;26.30;;;;;;5015819;28;20472;-74
2022/01/14 13:27:34;;;;;;;2.70;1.10;;;32.80;25.90;;;;;;5015758;28;20499;-75
2022/01/14 13:30:04;;;;;;;2.50;1.00;;;33.10;25.50;;;;;;5015797;28;20448;-74
2022/01/14 13:32:34;;;;;;;2.50;0.70;;;32.90;26.60;;;;;;5014677;28;20990;-75
2022/01/14 13:35:10;;;;;;;2.50;0.90;;;33.90;25.70;;;;;;5015571;28;20522;-75
2022/01/14 13:37:38;;;;;;;2.57;0.90;;;34.40;25.60;;;;;;5015759;28;20451;-76
2022/01/14 13:40:09;;;;;;;2.60;1.00;;;35.00;24.80;;;;;;5015540;28;20502;-75
2022/01/14 13:42:36;;;;;;;2.60;0.90;;;35.10;24.10;;;;;;5015431;28;20448;-76
2022/01/14 13:45:17;;;;;;;2.70;1.07;;;35.00;24.70;;;;;;5015371;28;20551;-73
2022/01/14 13:47:47;;;;;;;3.33;1.40;;;34.50;24.70;;;;;;5015425;28;20463;-75
2022/01/14 13:50:19;;;;;;;2.47;0.90;;;34.20;25.20;;;;;;5015382;28;20448;-75
2022/01/14 13:52:48;;;;;;;2.50;0.90;;;34.90;24.20;;;;;;5015368;28;20433;-74
2022/01/14 13:55:29;;;;;;;2.60;0.90;;;35.10;23.90;;;;;;5015165;28;20554;-74
2022/01/14 13:58:04;;;;;;;2.40;0.80;;;35.00;24.50;;;;;;5015148;28;20440;-72
2022/01/14 14:00:32;;;;;;;2.70;1.00;;;35.20;23.80;;;;;;5015670;28;20456;-74
2022/01/14 14:02:59;;;;;;;2.80;1.20;;;35.00;24.00;;;;;;5014707;28;20874;-74
2022/01/14 14:05:45;;;;;;;2.70;1.10;;;34.60;24.00;;;;;;5014921;28;20464;-74
2022/01/14 14:08:19;;;;;;;2.50;0.90;;;34.20;25.20;;;;;;5014957;28;20495;-75
2022/01/14 14:16:43;;;;;;;3.30;2.00;;;35.30;24.50;;;;;;5014898;28;20446;-75
2022/01/14 14:19:10;;;;;;;3.30;2.50;;;35.60;24.50;;;;;;5014762;28;20499;-74
2022/01/14 14:21:40;;;;;;;3.50;2.10;;;35.90;24.50;;;;;;5014367;28;20943;-75
2022/01/14 14:24:09;;;;;;;3.83;2.60;;;35.90;24.30;;;;;;5014575;28;20496;-75
2022/01/14 14:26:36;;;;;;;4.10;2.57;;;35.10;24.70;;;;;;5014735;28;20480;-75
2022/01/14 14:29:22;;;;;;;4.13;2.80;;;34.00;25.10;;;;;;5014590;28;20445;-75
2022/01/14 14:31:49;;;;;;;6.40;3.20;;;32.50;26.40;;;;;;5015205;28;20429;-75
2022/01/14 14:34:15;;;;;;;4.17;2.73;;;31.30;27.40;;;;;;5014485;28;20534;-77
2022/01/14 14:36:51;;;;;;;4.43;3.03;;;30.30;28.10;;;;;;5014586;28;20448;-76
2022/01/14 14:39:18;;;;;;;4.73;3.00;;;29.40;28.90;;;;;;5015259;28;20931;-76
2022/01/14 14:41:45;;;;;;;5.50;2.93;;;28.50;30.10;;;;;;5014392;28;20458;-76
2022/01/14 14:44:11;;;;;;;4.20;3.33;;;27.70;30.70;;;;;;5013893;28;20892;-76
2022/01/14 14:46:42;;;;;;;4.87;3.13;;;26.60;32.00;;;;;;5014488;28;20526;-76
2022/01/14 14:49:09;;;;;;;5.10;3.03;;;25.40;33.30;;;;;;5014365;28;20432;-76
2022/01/14 14:51:36;;;;;;;3.87;3.10;;;24.20;34.50;;;;;;5014292;28;20524;-74
2022/01/14 14:54:04;;;;;;;4.23;2.80;;;23.00;35.40;;;;;;5014072;28;20472;-76
2022/01/14 14:56:30;;;;;;;4.30;2.87;;;21.80;36.80;;;;;;5014129;28;20455;-75
2022/01/14 14:58:57;;;;;;;5.33;3.40;;;20.60;38.40;;;;;;5014109;28;20444;-75
2022/01/14 15:01:24;;;;;;;4.70;2.87;;;19.50;40.10;;;;;;5014103;28;20444;-75
2022/01/14 15:03:50;;;;;;;6.80;3.30;;;18.50;42.10;;;;;;5013854;28;20487;-76
2022/01/14 15:06:17;;;;;;;4.53;3.67;;;17.60;43.70;;;;;;5013707;28;20849;-74
2022/01/14 15:08:44;;;;;;;5.53;3.90;;;16.80;45.40;;;;;;5013942;28;20456;-75
2022/01/14 15:11:12;;;;;;;5.10;3.47;;;16.10;46.80;;;;;;5013921;28;20506;-75
2022/01/14 15:13:41;;;;;;;4.17;3.33;;;15.40;48.30;;;;;;5013389;28;20874;-74
2022/01/14 15:16:26;;;;;;;6.93;4.27;;;14.80;49.70;;;;;;5013959;28;20499;-75
2022/01/14 15:18:54;;;;;;;5.50;3.23;;;14.30;51.00;;;;;;5013820;28;20433;-74
2022/01/14 15:21:20;;;;;;;5.33;3.70;;;13.80;52.30;;;;;;5013425;28;20842;-75
2022/01/14 15:23:50;;;;;;;4.60;3.33;;;13.40;53.00;;;;;;5013601;28;20488;-75
2022/01/14 15:26:20;;;;;;;4.70;3.90;;;13.10;53.80;;;;;;5013788;28;20456;-76
2022/01/14 15:28:47;;;;;;;5.10;4.03;;;12.70;55.00;;;;;;5013678;28;20532;-74
2022/01/14 15:31:14;;;;;;;6.40;4.90;;;12.40;55.90;;;;;;5013333;28;21002;-76
2022/01/14 15:33:40;;;;;;;6.13;4.50;;;12.10;56.40;;;;;;5013551;28;20468;-75
2022/01/14 15:36:07;;;;;;;5.30;4.17;;;11.90;57.10;;;;;;5013638;28;20502;-75
2022/01/14 15:38:34;;;;;;;6.60;4.00;;;11.70;57.70;;;;;;5013634;28;20444;-76
2022/01/14 15:41:02;;;;;;;5.47;4.00;;;11.40;58.30;;;;;;5013306;28;20948;-76
2022/01/14 15:43:32;;;;;;;5.10;3.50;;;11.30;58.70;;;;;;5013440;28;20483;-75
2022/01/14 15:45:59;;;;;;;5.30;3.77;;;11.00;59.30;;;;;;5013517;28;20550;-75
2022/01/14 15:48:26;;;;;;;6.10;4.30;;;10.90;59.80;;;;;;5013540;28;20495;-75
2022/01/14 15:50:53;;;;;;;6.03;4.43;;;10.70;60.20;;;;;;5013474;28;20500;-75
2022/01/14 15:53:20;;;;;;;4.43;3.67;;;10.60;60.50;;;;;;5013305;28;20444;-76
2022/01/14 15:55:46;;;;;;;4.87;4.33;;;10.40;60.80;;;;;;5015854;28;20452;-76
2022/01/14 15:58:14;;;;;;;5.20;4.33;;;10.30;61.40;;;;;;5017406;28;20498;-75
2022/01/14 16:00:42;;;;;;;5.43;4.37;;;10.20;61.60;;;;;;5017076;28;20866;-75
2022/01/14 16:03:09;;;;;;;5.20;4.17;;;10.10;61.90;;;;;;5017304;28;20495;-76
2022/01/14 16:05:36;;;;;;;7.20;3.53;;;10.00;62.00;;;;;;5017172;28;20472;-75
2022/01/14 16:08:03;;;;;;;6.60;4.40;;;9.90;62.40;;;;;;5017285;28;20456;-76
2022/01/14 16:10:30;;;;;;;5.60;4.00;;;9.80;62.60;;;;;;5016951;28;20931;-75
2022/01/14 16:12:58;;;;;;;4.17;3.70;;;9.80;62.70;;;;;;5017199;28;20880;-75
2022/01/14 16:15:25;;;;;;;5.30;3.57;;;9.70;62.90;;;;;;5041288;23;20554;-71
2022/01/14 16:17:53;;;;;;;4.80;3.60;;;9.60;63.20;;;;;;5017114;28;20490;-70
2022/01/14 16:20:20;;;;;;;4.00;3.57;;;9.50;63.50;;;;;;5017046;28;20444;-71
2022/01/14 16:22:48;;;;;;;5.40;4.40;;;9.40;63.60;;;;;;5017022;28;20452;-71
2022/01/14 16:25:16;;;;;;;4.30;3.83;;;9.40;63.60;;;;;;5016777;28;20492;-70
2022/01/14 16:27:43;;;;;;;4.57;3.57;;;9.30;63.80;;;;;;5016825;28;20889;-71
2022/01/14 16:30:12;;;;;;;4.83;3.63;;;9.20;64.10;;;;;;5016802;28;20454;-70
2022/01/14 16:32:39;;;;;;;4.70;3.27;;;9.10;64.60;;;;;;5016793;28;20542;-71
2022/01/14 16:35:10;;;;;;;4.93;3.43;;;9.00;64.70;;;;;;5016695;28;20464;-71
2022/01/14 16:37:37;;;;;;;4.60;3.70;;;9.00;64.70;;;;;;5016755;28;20523;-71
2022/01/14 16:40:06;;;;;;;5.43;4.10;;;9.00;64.80;;;;;;5016593;28;20448;-73
2022/01/14 16:42:35;;;;;;;4.63;3.40;;;8.90;64.90;;;;;;5016359;28;20452;-71
2022/01/14 16:45:02;;;;;;;5.77;4.07;;;8.80;65.30;;;;;;5015923;28;20856;-70
2022/01/14 16:47:28;;;;;;;5.47;4.30;;;8.80;65.20;;;;;;5016509;28;20452;-71
2022/01/14 16:49:55;;;;;;;5.23;4.00;;;8.70;65.20;;;;;;5016823;28;20448;-71
2022/01/14 16:52:24;;;;;;;5.70;4.30;;;8.70;65.30;;;;;;5016150;28;21008;-71
2022/01/14 16:54:52;;;;;;;5.73;4.73;;;8.60;65.40;;;;;;5016089;28;21041;-71
2022/01/14 16:57:20;;;;;;;5.33;4.60;;;8.50;65.90;;;;;;5016321;28;20444;-69
2022/01/14 16:59:53;;;;;;;6.70;4.50;;;8.50;66.00;;;;;;5016427;28;20484;-70
2022/01/14 17:02:20;;;;;;;5.83;5.23;;;8.40;66.20;;;;;;5016300;28;20444;-69
2022/01/14 17:04:47;;;;;;;5.60;4.07;;;8.40;66.30;;;;;;5016045;28;20484;-69
2022/01/14 17:07:13;;;;;;;4.73;4.10;;;8.30;66.50;;;;;;5014965;28;20476;-71
2022/01/14 17:09:43;;;;;;;5.60;4.77;;;8.30;66.50;;;;;;5016154;28;20452;-69
2022/01/14 17:12:13;;;;;;;6.10;5.50;;;8.20;66.80;;;;;;5016108;28;20459;-69